createdAt,value
2023-04-01T00:11:12.451Z,80.9
2023-04-01T00:26:23.466Z,81
2023-04-01T00:41:33.543Z,81.1
2023-04-01T00:56:43.134Z,81.2
2023-04-01T01:11:52.798Z,81.3
2023-04-01T01:27:02.943Z,81.3
2023-04-01T01:42:12.269Z,81.4
2023-04-01T01:57:22.198Z,81.5
2023-04-01T02:12:31.781Z,81.4
2023-04-01T02:27:41.374Z,81.4
2023-04-01T02:42:50.856Z,81.4
2023-04-01T02:58:01.417Z,81.5
2023-04-01T03:13:10.664Z,81.5
2023-04-01T03:28:20.095Z,81.5
2023-04-01T03:43:30.071Z,81.5
2023-04-01T03:58:39.496Z,81.6
2023-04-01T04:13:49.362Z,81.6
2023-04-01T04:28:59.045Z,81.5
2023-04-01T04:44:08.543Z,81.7
2023-04-01T04:59:18.409Z,81.8
2023-04-01T05:14:27.626Z,81.9
2023-04-01T05:29:36.957Z,81.9
2023-04-01T05:44:46.139Z,81.9
2023-04-01T05:59:56.541Z,81.7
2023-04-01T06:15:06.605Z,81.7
2023-04-01T06:30:16.673Z,81.6
2023-04-01T06:45:26.549Z,81.6
2023-04-01T07:00:36.076Z,81.5
2023-04-01T07:16:25.775Z,81.4
2023-04-01T07:31:37.728Z,81.4
2023-04-01T07:46:47.402Z,81.3
2023-04-01T08:01:57.161Z,81.1
2023-04-01T08:17:06.893Z,81
2023-04-01T08:32:17.039Z,80.8
2023-04-01T08:47:27.624Z,80.7
2023-04-01T09:02:39.979Z,80.5
2023-04-01T09:18:01.828Z,80.3
2023-04-01T09:33:12.654Z,80.3
2023-04-01T09:48:22.953Z,80.1
2023-04-01T10:03:32.571Z,80
2023-04-01T10:18:42.116Z,80.1
2023-04-01T10:33:51.927Z,81
2023-04-01T10:49:01.465Z,81.1
2023-04-01T11:04:11.279Z,80.7
2023-04-01T11:19:20.767Z,80.7
2023-04-01T11:34:29.994Z,81.5
2023-04-01T11:49:39.745Z,81
2023-04-01T12:04:49.807Z,80.7
2023-04-01T12:19:59.511Z,80.3
2023-04-01T12:35:09.046Z,79.8
2023-04-01T12:50:18.975Z,80
2023-04-01T13:05:28.200Z,80.2
2023-04-01T13:20:37.921Z,80
2023-04-01T13:35:47.766Z,80.2
2023-04-01T13:50:57.270Z,81.4
2023-04-01T14:06:06.995Z,81.6
2023-04-01T14:21:16.049Z,82
2023-04-01T14:36:25.433Z,82.4
2023-04-01T14:51:34.741Z,82.9
2023-04-01T15:06:43.734Z,82.8
2023-04-01T15:21:53.225Z,82.9
2023-04-01T15:37:02.637Z,82.8
2023-04-01T15:52:12.048Z,83
2023-04-01T16:07:21.575Z,83.1
2023-04-01T16:22:31.292Z,83.3
2023-04-01T16:37:40.808Z,83.5
2023-04-01T16:52:50.053Z,83.7
2023-04-01T17:07:59.279Z,83.5
2023-04-01T17:23:08.549Z,83.8
2023-04-01T17:38:18.585Z,83.7
2023-04-01T17:53:28.297Z,83.7
2023-04-01T18:08:37.765Z,83.7
2023-04-01T18:24:03.229Z,83.8
2023-04-01T18:39:12.890Z,83.8
2023-04-01T18:54:22.541Z,83.9
2023-04-01T19:09:32.148Z,83.7
2023-04-01T19:24:42.674Z,83.8
2023-04-01T19:39:51.844Z,83.9
2023-04-01T19:55:01.030Z,83.8
2023-04-01T20:10:10.534Z,83.8
2023-04-01T20:25:20.078Z,83.9
2023-04-01T20:40:29.575Z,83.8
2023-04-01T20:55:39.016Z,83.7
2023-04-01T21:10:48.631Z,83.8
2023-04-01T21:25:57.895Z,83.8
2023-04-01T21:41:07.149Z,82.9
2023-04-01T21:56:16.660Z,83.7
2023-04-01T22:11:26.305Z,83.9
2023-04-01T22:26:35.873Z,83.7
2023-04-01T22:41:45.283Z,83.7
2023-04-01T22:56:54.862Z,83.7
2023-04-01T23:12:05.000Z,83.7
2023-04-01T23:27:14.620Z,83.6
2023-04-01T23:42:24.058Z,83.6
2023-04-01T23:57:33.954Z,83.6
